Canyon, TX (79015)

9:17 PM CDT en Agosto 30, 2014 (GMT -0500)
Mescalero Park | Change Station
CLOSE
Current Station
Estación meteorológica personal
Location: Amarillo, TX
Altura: 3636 ft
Estaciones meteorológicas cercanas

Alt 3636 ft 35.05 °N, 101.88 °W | Updated 7 minutes ago

Parcialmente nublado
Parcialmente nublado
82.3 ° F
Sensación térmica 81 ° F
N
9.9
Viento Variable Viento desde Norte
Gusts 10.9 mph

Hoy
Alta -- | Baja -- ° F
--% Posibilidad de precipitaciones
Ayer
Alta -- | Baja -- ° F
Precip. -- pul
7:18 AM 8:16 PM
Creciente, 26% visible
Presión 29.80 pul
Visibilidad 10.0 Millas
Nubes Baja 12000 ft
Índice de calor 81 ° F
Punto de rocío 52 ° F
Humedad 33%
Precipitaciones 0.00 pul
Espesor de la nieve No disponible.
UV 0 de una escala de 12
Polen 10.50 de una escala de 12
Calidad del aire No disponible.
Flu Activity No disponible.
METAR KAMA 310153Z 14011KT 10SM FEW120 26/14 A2997 RMK AO2 SLP091 T02610139

More Conditions Fewer Conditions

Presión 29.80 pul
Visibilidad 10.0 Millas
Nubes Baja 12000 ft
Índice de calor 81 ° F
Punto de rocío 52 ° F
Humedad 33%
Precipitaciones 0.00 pul
Espesor de la nieve No disponible.
UV 0 de una escala de 12
Polen 10.50 de una escala de 12
Calidad del aire No disponible.
Flu Activity No disponible.
METAR KAMA 310153Z 14011KT 10SM FEW120 26/14 A2997 RMK AO2 SLP091 T02610139

More Conditions Fewer Conditions

10-Day Weather Forecast

Almanac

Astronomía

Aug. 30, 2014 Salida Puesta
Hora real 7:18 AM CDT 8:16 PM CDT
Crepúsculo civil 6:53 AM CDT 8:42 PM CDT
Crepúsculo náutico 6:22 AM CDT 9:13 PM CDT
Crepúsculo astronómico 5:50 AM CDT 9:45 PM CDT
Luna 11:56 AM CDT (8/30) 11:05 PM CDT (8/30)
Horas de luz 13h 49m
Horas de luz
12h 58m
Tomorrow will be 2m 6s shorter.
Creciente, 26% of the Moon is Illuminated
Hoy
Creciente
Sep 2
Cuarto creciente
Sep 8
Luna llena
Sep 15
Cuarto menguante
Sep 24
Nueva

Extremos de hoy

Máximos del estado Bajos del estado

Community

WunderPhotos

Upload Photos

1,748,736 ¡fotos cargadas!

Nearby

Grosos de nieve

Estación Profundido Altura
No tenemos constancia de nieve nueva.

Actividad de terremotos

Ciudad Distance Mag. Tiempo y dato
No hay informes recientes de la actividad sísmica.
Magnitud mínima muestra es 2,5.

Temperaturas de aguas costeras

Lugar Temperatura
Sin partes meteorológicos de las estaciones

Estaciones meteorológicas cercanas